Time;durP1;ratioP1;P1;durP2;ratioP2;P2;SDS_P1;SDS_P2;PMS_P1;PMS_P2;Temp;Humidity;BMP_temperature;BMP_pressure;BME280_temperature;BME280_humidity;BME280_pressure;Samples;Min_cycle;Max_cycle;Signal;HPM_P1;HPM_P2
2021/01/28 06:02:14;;;;;;;8.93;4.47;;;3.40;97.30;;;;;;5292808;23;20507;-72
2021/01/28 06:04:47;;;;;;;6.20;4.10;;;3.40;97.30;;;;;;4913275;29;20532;-72
2021/01/28 06:07:32;;;;;;;6.97;3.90;;;3.40;97.30;;;;;;4915968;29;20580;-71
2021/01/28 06:10:05;;;;;;;9.17;4.00;;;3.40;97.30;;;;;;4921779;29;20494;-72
2021/01/28 06:12:35;;;;;;;5.80;3.70;;;3.40;97.30;;;;;;4911326;29;20440;-72
2021/01/28 06:15:19;;;;;;;8.10;4.30;;;3.50;97.30;;;;;;4902669;29;20971;-72
2021/01/28 06:18:03;;;;;;;7.30;4.30;;;3.50;97.30;;;;;;4879149;29;20461;-71
2021/01/28 06:21:06;;;;;;;6.70;3.93;;;3.50;97.30;;;;;;4878244;29;20787;-71
2021/01/28 06:24:09;;;;;;;5.87;4.40;;;3.50;97.30;;;;;;4878283;29;20447;-71
2021/01/28 06:27:09;;;;;;;8.63;4.80;;;3.50;97.30;;;;;;4879970;29;20437;-72
2021/01/28 06:29:58;;;;;;;9.80;5.50;;;3.50;97.30;;;;;;4896557;29;20433;-71
2021/01/28 06:33:08;;;;;;;10.00;4.60;;;3.50;97.30;;;;;;4896381;29;20457;-72
2021/01/28 06:35:33;;;;;;;9.30;4.70;;;3.50;97.30;;;;;;4904978;29;20437;-71
2021/01/28 06:38:10;;;;;;;10.07;4.80;;;3.40;97.30;;;;;;4896673;29;20820;-71
2021/01/28 06:40:43;;;;;;;7.87;4.40;;;3.40;97.30;;;;;;4897424;29;20196;-72
2021/01/28 06:43:14;;;;;;;7.27;5.03;;;3.40;97.30;;;;;;4896994;29;20469;-71
2021/01/28 06:46:26;;;;;;;13.53;5.90;;;3.40;97.30;;;;;;4896460;29;20512;-72
2021/01/28 06:48:55;;;;;;;8.83;4.60;;;3.40;97.30;;;;;;4852870;29;20437;-72
2021/01/28 06:51:36;;;;;;;6.30;4.07;;;3.40;97.30;;;;;;4896691;29;20460;-72
2021/01/28 06:54:19;;;;;;;8.03;4.50;;;3.40;97.30;;;;;;4898172;29;20432;-72
2021/01/28 06:56:53;;;;;;;6.80;4.23;;;3.50;97.30;;;;;;4896357;29;20516;-71
2021/01/28 06:59:37;;;;;;;7.90;4.30;;;3.50;97.30;;;;;;4896614;29;20417;-72
2021/01/28 07:02:25;;;;;;;7.40;4.80;;;3.40;97.30;;;;;;4896502;29;20878;-72
2021/01/28 07:05:20;;;;;;;7.33;4.30;;;3.50;97.30;;;;;;4896722;29;20425;-71
2021/01/28 07:07:57;;;;;;;12.33;5.07;;;3.50;97.30;;;;;;4896295;29;20429;-72
2021/01/28 07:10:35;;;;;;;9.77;4.33;;;3.50;97.30;;;;;;4896069;29;20772;-72
2021/01/28 07:13:03;;;;;;;9.73;4.57;;;3.50;97.30;;;;;;4896807;29;20426;-72
2021/01/28 07:15:29;;;;;;;7.53;4.43;;;3.50;97.30;;;;;;4897492;29;20923;-72
2021/01/28 07:18:11;;;;;;;6.33;4.17;;;3.50;97.30;;;;;;4896109;29;20574;-72
2021/01/28 07:20:40;;;;;;;8.27;4.70;;;3.50;97.30;;;;;;4896541;29;20206;-72
2021/01/28 07:23:25;;;;;;;10.67;4.90;;;3.50;97.30;;;;;;4896263;29;20433;-72
2021/01/28 07:26:05;;;;;;;6.33;4.17;;;3.50;97.30;;;;;;4896305;29;20787;-71
2021/01/28 07:28:30;;;;;;;11.43;5.23;;;3.50;97.30;;;;;;4896416;29;20421;-72
2021/01/28 07:31:08;;;;;;;8.60;5.03;;;3.50;97.30;;;;;;4896007;29;20456;-72
2021/01/28 07:33:41;;;;;;;18.00;5.40;;;3.50;97.30;;;;;;4897641;29;20181;-71
2021/01/28 07:36:22;;;;;;;15.70;6.97;;;3.50;97.30;;;;;;4905845;29;20468;-71
2021/01/28 07:38:59;;;;;;;10.97;5.53;;;3.60;97.30;;;;;;4896294;29;20461;-72
2021/01/28 07:41:40;;;;;;;16.17;7.97;;;3.60;97.30;;;;;;4899657;29;20532;-71
2021/01/28 07:44:24;;;;;;;16.13;7.40;;;3.60;97.30;;;;;;4899515;29;20421;-71
2021/01/28 07:46:51;;;;;;;14.13;6.40;;;3.60;97.30;;;;;;4900574;29;20421;-72
2021/01/28 07:49:21;;;;;;;18.37;8.47;;;3.50;97.30;;;;;;4899601;29;20433;-71
2021/01/28 07:51:52;;;;;;;15.80;7.67;;;3.50;97.30;;;;;;4899045;29;20823;-72
2021/01/28 07:54:24;;;;;;;32.53;12.90;;;3.50;97.30;;;;;;4899518;29;20422;-71
2021/01/28 07:57:05;;;;;;;17.80;7.30;;;3.50;97.30;;;;;;4899400;29;20481;-71
2021/01/28 07:59:46;;;;;;;11.83;5.60;;;3.60;97.30;;;;;;4900343;29;20417;-72
2021/01/28 08:02:27;;;;;;;10.57;6.40;;;3.50;97.30;;;;;;4900374;29;20457;-71
2021/01/28 08:05:05;;;;;;;13.53;6.53;;;3.60;97.30;;;;;;4899219;29;20483;-72
2021/01/28 08:07:30;;;;;;;13.77;7.07;;;3.60;97.30;;;;;;4898945;29;20519;-72
2021/01/28 08:09:59;;;;;;;14.00;7.03;;;3.60;97.30;;;;;;4899155;29;20509;-72
2021/01/28 08:12:31;;;;;;;18.23;8.80;;;3.50;97.30;;;;;;4899021;29;20327;-72
2021/01/28 08:14:59;;;;;;;15.03;6.80;;;3.50;97.30;;;;;;4899491;29;20489;-71
2021/01/28 08:17:33;;;;;;;19.97;9.30;;;3.50;97.30;;;;;;4909896;29;20498;-72
2021/01/28 08:20:17;;;;;;;17.33;6.53;;;3.50;97.30;;;;;;4911860;29;20444;-72
2021/01/28 08:23:04;;;;;;;16.97;7.07;;;3.50;97.30;;;;;;4900146;29;20425;-73
2021/01/28 08:25:35;;;;;;;15.50;7.03;;;3.50;97.30;;;;;;4900708;29;20421;-73
2021/01/28 08:28:12;;;;;;;16.53;7.23;;;3.40;97.30;;;;;;4898827;29;20422;-73
2021/01/28 08:30:37;;;;;;;11.03;5.80;;;3.40;97.30;;;;;;4900129;29;20437;-73
2021/01/28 08:33:04;;;;;;;16.53;6.70;;;3.40;97.30;;;;;;4899563;29;20486;-72
2021/01/28 08:35:37;;;;;;;13.53;7.00;;;3.40;97.30;;;;;;4906952;29;20650;-73
2021/01/28 08:38:28;;;;;;;16.27;7.30;;;3.30;97.30;;;;;;4900422;29;20429;-73
2021/01/28 08:41:16;;;;;;;8.87;6.20;;;3.30;97.30;;;;;;4897916;29;20471;-73
2021/01/28 08:43:43;;;;;;;20.33;6.63;;;3.30;97.30;;;;;;4899268;29;20424;-73
2021/01/28 08:46:20;;;;;;;11.37;6.40;;;3.30;97.30;;;;;;4898273;29;20449;-72
2021/01/28 08:48:47;;;;;;;15.43;6.90;;;3.30;97.30;;;;;;4898015;29;20939;-73
2021/01/28 08:51:24;;;;;;;11.93;6.23;;;3.20;97.30;;;;;;4898552;29;20457;-73
2021/01/28 08:54:15;;;;;;;15.30;6.87;;;3.30;97.30;;;;;;4898628;29;20481;-72
2021/01/28 08:56:41;;;;;;;18.60;7.03;;;3.30;97.30;;;;;;4896132;29;20485;-73
2021/01/28 08:59:14;;;;;;;21.60;7.33;;;3.30;97.30;;;;;;4898205;29;20979;-73
2021/01/28 09:01:44;;;;;;;14.67;6.50;;;3.30;97.30;;;;;;4897813;29;20521;-72
2021/01/28 09:04:16;;;;;;;16.63;7.47;;;3.40;97.30;;;;;;4898067;29;20806;-72
2021/01/28 09:06:45;;;;;;;16.33;7.33;;;3.40;97.30;;;;;;4898340;29;20943;-72
2021/01/28 09:09:25;;;;;;;17.70;7.00;;;3.40;97.30;;;;;;4898465;29;20425;-72
2021/01/28 09:11:53;;;;;;;14.43;6.80;;;3.40;97.30;;;;;;4897281;29;20445;-72
2021/01/28 09:14:37;;;;;;;13.83;6.60;;;3.40;97.30;;;;;;4899156;29;20457;-72
2021/01/28 09:17:28;;;;;;;15.43;8.00;;;3.40;97.30;;;;;;4898273;29;20457;-72
2021/01/28 09:20:01;;;;;;;17.87;7.33;;;3.40;97.30;;;;;;4897519;29;20497;-72
2021/01/28 09:22:34;;;;;;;21.47;7.87;;;3.50;97.30;;;;;;4899475;29;20906;-71
2021/01/28 09:25:04;;;;;;;14.87;7.20;;;3.50;97.30;;;;;;4897086;29;20443;-72
2021/01/28 09:27:38;;;;;;;23.33;8.13;;;3.50;97.30;;;;;;4897177;29;20433;-72
2021/01/28 09:30:09;;;;;;;21.30;7.37;;;3.50;97.30;;;;;;4899104;29;20916;-72
2021/01/28 09:32:35;;;;;;;19.50;8.80;;;3.50;97.30;;;;;;4897135;29;20449;-72
2021/01/28 09:35:15;;;;;;;16.10;7.87;;;3.50;97.30;;;;;;4902645;29;20439;-72
2021/01/28 09:37:43;;;;;;;20.23;9.80;;;3.50;97.30;;;;;;4903148;29;20999;-72
2021/01/28 09:40:22;;;;;;;18.90;8.97;;;3.50;97.30;;;;;;4896854;29;20425;-71
2021/01/28 09:42:48;;;;;;;18.30;8.57;;;3.50;97.30;;;;;;4897512;29;20861;-72
2021/01/28 09:45:32;;;;;;;16.23;7.90;;;3.60;97.30;;;;;;4898368;29;20927;-72
2021/01/28 09:48:00;;;;;;;15.00;8.53;;;3.50;97.30;;;;;;4896871;29;20455;-72
2021/01/28 09:50:26;;;;;;;30.07;9.33;;;3.50;97.30;;;;;;4897192;29;20430;-72
2021/01/28 09:52:52;;;;;;;18.00;8.70;;;3.50;97.30;;;;;;4897488;29;20804;-71
2021/01/28 09:55:22;;;;;;;18.87;9.27;;;3.50;97.30;;;;;;4897752;29;20189;-71
2021/01/28 09:57:48;;;;;;;25.27;10.27;;;3.50;97.30;;;;;;4899137;29;20813;-72
2021/01/28 10:00:19;;;;;;;29.70;7.83;;;3.50;97.30;;;;;;4897061;29;20976;-72
2021/01/28 10:02:56;;;;;;;26.37;8.10;;;3.60;97.30;;;;;;4898587;29;20438;-72
2021/01/28 10:05:25;;;;;;;15.40;7.40;;;3.60;97.30;;;;;;4897847;29;20490;-71
2021/01/28 10:07:51;;;;;;;15.23;7.60;;;3.70;97.30;;;;;;4898315;29;20429;-71
2021/01/28 10:10:20;;;;;;;17.20;8.10;;;3.70;97.30;;;;;;4897136;29;20935;-72
2021/01/28 10:12:47;;;;;;;14.57;7.17;;;3.70;97.30;;;;;;4897206;29;20422;-70
2021/01/28 10:15:14;;;;;;;16.00;8.60;;;3.70;97.30;;;;;;4896664;29;20795;-72
2021/01/28 10:17:42;;;;;;;24.50;8.00;;;3.70;97.30;;;;;;4897589;29;20479;-72
2021/01/28 10:20:08;;;;;;;14.50;7.00;;;3.70;97.30;;;;;;4898381;29;20424;-71
2021/01/28 10:22:36;;;;;;;20.63;6.80;;;3.70;97.30;;;;;;4896460;29;20955;-72
2021/01/28 10:25:04;;;;;;;21.20;8.13;;;3.70;97.30;;;;;;4896986;29;20425;-72
2021/01/28 10:27:30;;;;;;;18.13;7.80;;;3.60;97.30;;;;;;4898396;29;20919;-71
2021/01/28 10:29:55;;;;;;;17.07;7.70;;;3.60;97.30;;;;;;4896024;29;20844;-71
2021/01/28 10:32:21;;;;;;;13.17;6.97;;;3.60;97.30;;;;;;4896671;29;20537;-70
2021/01/28 10:34:47;;;;;;;21.13;7.33;;;3.60;97.30;;;;;;4900688;29;20267;-71
2021/01/28 10:37:12;;;;;;;15.83;6.43;;;3.60;97.30;;;;;;4907600;29;20629;-72
2021/01/28 10:39:38;;;;;;;14.23;7.43;;;3.70;97.30;;;;;;4896610;29;20181;-71
2021/01/28 10:42:05;;;;;;;19.83;7.50;;;3.70;97.30;;;;;;4896845;29;20312;-71
2021/01/28 10:44:31;;;;;;;12.90;6.63;;;3.70;97.30;;;;;;4895953;29;20939;-72
2021/01/28 10:46:57;;;;;;;15.20;7.47;;;3.70;97.30;;;;;;4896246;29;20430;-72
2021/01/28 10:49:23;;;;;;;18.77;8.40;;;3.70;97.30;;;;;;4897102;29;20275;-71
2021/01/28 10:51:49;;;;;;;17.87;7.20;;;3.80;97.30;;;;;;4895946;29;20516;-72
2021/01/28 10:54:16;;;;;;;13.10;6.90;;;3.80;97.30;;;;;;4896566;29;20434;-72
2021/01/28 10:56:42;;;;;;;13.70;6.33;;;3.80;97.30;;;;;;4897262;29;20753;-71
2021/01/28 10:59:08;;;;;;;11.37;6.30;;;3.90;97.30;;;;;;4899813;29;20492;-72
2021/01/28 11:01:34;;;;;;;19.93;7.97;;;3.80;97.30;;;;;;4905194;29;20492;-72
2021/01/28 11:04:00;;;;;;;13.73;6.73;;;3.90;97.30;;;;;;4899874;29;20268;-72
2021/01/28 11:06:26;;;;;;;23.73;9.87;;;3.90;97.30;;;;;;4896145;29;20885;-72
2021/01/28 11:08:52;;;;;;;26.90;9.50;;;3.90;97.30;;;;;;4896356;29;20191;-71
2021/01/28 11:11:18;;;;;;;18.37;8.00;;;3.90;97.30;;;;;;4896754;29;20959;-72
2021/01/28 11:13:46;;;;;;;22.50;8.40;;;3.90;97.30;;;;;;4897385;29;20181;-72
2021/01/28 11:16:12;;;;;;;13.47;7.87;;;4.00;97.30;;;;;;4901010;29;20460;-72
2021/01/28 11:18:38;;;;;;;19.30;8.73;;;4.00;97.30;;;;;;4900503;29;20430;-71
2021/01/28 11:21:04;;;;;;;21.40;8.60;;;3.90;97.30;;;;;;4901164;29;20448;-72
2021/01/28 11:23:30;;;;;;;14.73;7.70;;;3.90;97.30;;;;;;4899915;29;20186;-71
2021/01/28 11:25:55;;;;;;;18.20;7.30;;;3.90;97.30;;;;;;4901669;29;20837;-71
2021/01/28 11:28:21;;;;;;;12.40;6.90;;;3.90;97.30;;;;;;4900846;29;20185;-71
2021/01/28 11:30:47;;;;;;;12.43;7.10;;;4.00;97.30;;;;;;4899517;29;20292;-72
2021/01/28 11:33:13;;;;;;;16.77;7.13;;;4.00;97.30;;;;;;4899992;29;20244;-71
2021/01/28 11:35:39;;;;;;;19.60;7.67;;;4.00;97.30;;;;;;4909685;29;20424;-72
2021/01/28 11:38:07;;;;;;;16.00;7.37;;;4.00;97.30;;;;;;4905608;29;20272;-71
2021/01/28 11:40:34;;;;;;;15.77;7.80;;;4.10;97.30;;;;;;4899753;29;20237;-71
2021/01/28 11:43:00;;;;;;;12.40;7.27;;;4.00;97.30;;;;;;4899118;29;20433;-71
2021/01/28 11:45:32;;;;;;;13.30;6.77;;;4.00;97.30;;;;;;4900234;29;20484;-72
2021/01/28 11:47:58;;;;;;;13.70;7.30;;;4.10;97.30;;;;;;4900783;29;20427;-72
2021/01/28 11:50:24;;;;;;;22.97;8.60;;;4.10;97.30;;;;;;4899284;29;20430;-72
2021/01/28 11:52:50;;;;;;;18.77;7.47;;;4.10;97.30;;;;;;4898783;29;20437;-72
2021/01/28 11:55:21;;;;;;;16.57;8.07;;;4.10;97.30;;;;;;4896752;29;20447;-72
2021/01/28 11:57:48;;;;;;;17.10;7.57;;;4.10;97.30;;;;;;4895780;29;20221;-71
2021/01/28 12:00:16;;;;;;;16.87;7.23;;;4.10;97.30;;;;;;4895625;29;20556;-72
2021/01/28 12:02:41;;;;;;;11.50;6.67;;;4.10;97.30;;;;;;4896328;29;20481;-72
2021/01/28 12:05:10;;;;;;;15.90;7.33;;;4.10;97.30;;;;;;4895279;29;20462;-71
2021/01/28 12:07:36;;;;;;;15.70;7.30;;;4.10;97.30;;;;;;4881537;29;20182;-71
2021/01/28 12:10:04;;;;;;;15.27;7.43;;;4.10;97.30;;;;;;4895890;29;20426;-72
2021/01/28 12:12:30;;;;;;;14.17;6.50;;;4.00;97.30;;;;;;4881217;29;20438;-72
2021/01/28 12:14:56;;;;;;;15.33;6.63;;;4.10;97.30;;;;;;4881555;29;20871;-72
2021/01/28 12:17:22;;;;;;;13.73;7.37;;;4.00;97.30;;;;;;4896030;29;20214;-71
2021/01/28 12:19:47;;;;;;;15.87;6.93;;;4.00;97.30;;;;;;4880956;29;20182;-72
2021/01/28 12:22:13;;;;;;;17.03;7.40;;;4.00;97.30;;;;;;4880986;29;20442;-72
2021/01/28 12:24:38;;;;;;;14.47;6.70;;;4.00;97.30;;;;;;4895641;29;20690;-72
2021/01/28 12:27:04;;;;;;;10.00;5.90;;;4.00;97.30;;;;;;4895377;29;20193;-72
2021/01/28 12:29:30;;;;;;;11.57;5.87;;;4.00;97.30;;;;;;4898261;29;20587;-72
2021/01/28 12:31:56;;;;;;;13.90;6.60;;;4.00;97.30;;;;;;4898598;29;20244;-72
2021/01/28 12:34:22;;;;;;;12.77;6.47;;;4.00;97.30;;;;;;4898087;29;20556;-72
2021/01/28 12:36:48;;;;;;;17.93;6.83;;;4.00;97.30;;;;;;4898312;29;20206;-73
2021/01/28 12:39:14;;;;;;;12.60;7.20;;;4.00;97.30;;;;;;4899139;29;20972;-72
2021/01/28 12:41:40;;;;;;;16.70;7.80;;;4.00;97.30;;;;;;4897408;29;20507;-72
2021/01/28 12:44:06;;;;;;;17.23;6.33;;;4.00;97.30;;;;;;4899220;29;20821;-72
2021/01/28 12:46:32;;;;;;;17.93;7.20;;;4.00;97.30;;;;;;4897923;29;20432;-72
2021/01/28 12:48:58;;;;;;;18.53;5.90;;;4.00;97.30;;;;;;4897124;29;20267;-73
2021/01/28 12:51:23;;;;;;;11.70;6.70;;;4.00;97.30;;;;;;4898676;29;20693;-72
2021/01/28 12:53:49;;;;;;;14.67;7.90;;;4.00;97.30;;;;;;4897522;29;20181;-72
2021/01/28 12:56:15;;;;;;;15.33;7.50;;;4.00;97.30;;;;;;4898569;29;20205;-73
2021/01/28 12:58:41;;;;;;;12.80;6.90;;;4.00;97.30;;;;;;4897313;29;20185;-72
2021/01/28 13:01:06;;;;;;;17.97;7.40;;;4.10;97.30;;;;;;4897231;29;20316;-73
2021/01/28 13:03:32;;;;;;;16.30;7.73;;;4.10;97.30;;;;;;4897169;29;20555;-72
2021/01/28 13:05:58;;;;;;;12.40;6.87;;;4.10;97.30;;;;;;4897361;29;20671;-72
2021/01/28 13:08:24;;;;;;;15.63;7.97;;;4.10;97.30;;;;;;4898690;29;20651;-71
2021/01/28 13:10:51;;;;;;;14.03;6.20;;;4.00;97.30;;;;;;4898155;29;20693;-72
2021/01/28 13:13:16;;;;;;;17.37;7.30;;;4.00;97.30;;;;;;4898137;29;20432;-72
2021/01/28 13:15:42;;;;;;;15.97;7.10;;;4.00;97.30;;;;;;4898771;29;20418;-73
2021/01/28 13:18:08;;;;;;;15.97;7.53;;;4.00;97.30;;;;;;4896491;29;20192;-73
2021/01/28 13:20:34;;;;;;;19.33;6.63;;;4.10;97.30;;;;;;4896611;29;20646;-73
2021/01/28 13:23:00;;;;;;;12.67;6.23;;;4.10;97.30;;;;;;4896995;29;20513;-72
2021/01/28 13:25:27;;;;;;;19.23;7.40;;;4.20;97.30;;;;;;4896707;29;20214;-72
2021/01/28 13:27:53;;;;;;;19.03;7.53;;;4.20;97.30;;;;;;4896818;29;20437;-73
2021/01/28 13:30:22;;;;;;;15.33;7.27;;;4.20;97.30;;;;;;4898140;29;20413;-71
2021/01/28 13:32:48;;;;;;;14.17;7.20;;;4.20;97.30;;;;;;4896828;29;20429;-72
2021/01/28 13:35:20;;;;;;;15.37;6.20;;;4.20;97.30;;;;;;4896332;29;20431;-72
2021/01/28 13:37:46;;;;;;;14.60;7.83;;;4.20;97.30;;;;;;4896376;29;20272;-72
2021/01/28 13:40:14;;;;;;;11.10;6.97;;;4.30;97.30;;;;;;4897510;29;20414;-73
2021/01/28 13:42:40;;;;;;;16.43;6.20;;;4.20;97.30;;;;;;4896932;29;20476;-72
2021/01/28 13:45:09;;;;;;;12.90;6.20;;;4.20;97.30;;;;;;4902771;29;20927;-73
2021/01/28 13:47:35;;;;;;;12.30;7.40;;;4.20;97.30;;;;;;4902639;29;20552;-72
2021/01/28 13:50:01;;;;;;;14.80;7.53;;;4.20;97.30;;;;;;4896120;29;20808;-72
2021/01/28 13:52:26;;;;;;;11.97;6.90;;;4.20;97.30;;;;;;4898031;29;20453;-72
2021/01/28 13:54:52;;;;;;;11.60;6.13;;;4.20;97.30;;;;;;4896256;29;20189;-72
2021/01/28 13:57:18;;;;;;;14.93;6.93;;;4.20;97.30;;;;;;4897615;29;20548;-72
2021/01/28 13:59:44;;;;;;;14.27;6.60;;;4.20;97.30;;;;;;4896299;29;20193;-73
2021/01/28 14:02:09;;;;;;;11.07;5.87;;;4.20;97.30;;;;;;4895791;29;20508;-73
2021/01/28 14:04:35;;;;;;;11.53;6.20;;;4.10;97.30;;;;;;4897444;29;20272;-72
2021/01/28 14:07:02;;;;;;;11.03;6.17;;;4.10;97.30;;;;;;4896407;29;20185;-72
2021/01/28 14:09:28;;;;;;;10.70;5.97;;;4.10;97.30;;;;;;4895955;29;20436;-71
2021/01/28 14:11:55;;;;;;;14.93;7.47;;;4.10;97.30;;;;;;4896073;29;20458;-72
2021/01/28 14:14:20;;;;;;;10.33;6.07;;;4.10;97.30;;;;;;4897234;29;20509;-72
2021/01/28 14:16:47;;;;;;;13.70;6.70;;;4.10;97.30;;;;;;4897056;29;20540;-72
2021/01/28 14:19:16;;;;;;;11.97;6.30;;;4.10;97.30;;;;;;4895751;29;20181;-72
2021/01/28 14:21:46;;;;;;;11.70;6.77;;;4.00;97.30;;;;;;4896001;29;20448;-72
2021/01/28 14:24:12;;;;;;;14.57;6.50;;;4.00;97.30;;;;;;4895899;29;20449;-72
2021/01/28 14:26:39;;;;;;;16.13;8.07;;;4.00;97.30;;;;;;4896120;29;20460;-70
2021/01/28 14:29:05;;;;;;;13.80;7.43;;;4.00;97.30;;;;;;4895965;29;20469;-72
2021/01/28 14:31:31;;;;;;;13.80;7.73;;;4.00;97.30;;;;;;4896783;29;20487;-71
2021/01/28 14:33:57;;;;;;;14.87;7.23;;;4.00;97.30;;;;;;4898143;29;20181;-72
2021/01/28 14:36:22;;;;;;;15.40;7.67;;;4.00;97.30;;;;;;4896681;29;20476;-73
2021/01/28 14:38:48;;;;;;;13.27;7.03;;;3.90;97.30;;;;;;4895843;29;20229;-72
2021/01/28 14:41:14;;;;;;;12.10;6.03;;;3.90;97.30;;;;;;4895979;29;20201;-72
2021/01/28 14:43:39;;;;;;;9.00;6.03;;;3.90;97.30;;;;;;4897358;29;20212;-72
2021/01/28 14:46:05;;;;;;;9.67;5.63;;;3.80;97.30;;;;;;4896821;29;20176;-73
2021/01/28 14:48:33;;;;;;;12.47;6.60;;;3.80;97.30;;;;;;4896947;29;20188;-72
2021/01/28 14:50:58;;;;;;;10.47;6.17;;;3.80;97.30;;;;;;4899939;29;20288;-73
2021/01/28 14:53:24;;;;;;;9.80;6.10;;;3.80;97.30;;;;;;4900887;29;20467;-72
2021/01/28 14:55:49;;;;;;;13.17;6.10;;;3.70;97.30;;;;;;4900557;29;20668;-72
2021/01/28 14:58:15;;;;;;;9.43;5.73;;;3.70;97.30;;;;;;4899927;29;20177;-72
2021/01/28 15:00:41;;;;;;;12.77;5.97;;;3.70;97.30;;;;;;4899893;29;20216;-73
2021/01/28 15:03:06;;;;;;;11.80;5.63;;;3.60;97.30;;;;;;4899473;29;20188;-72
2021/01/28 15:05:32;;;;;;;11.70;7.00;;;3.60;97.30;;;;;;4899751;29;20177;-72
2021/01/28 15:07:59;;;;;;;14.13;6.40;;;3.60;97.30;;;;;;4899211;29;20189;-72
2021/01/28 15:10:24;;;;;;;9.70;5.90;;;3.60;97.30;;;;;;4900033;29;20386;-72
2021/01/28 15:12:50;;;;;;;22.20;7.10;;;3.50;97.30;;;;;;4899654;29;21031;-72
2021/01/28 15:15:17;;;;;;;13.43;6.40;;;3.40;97.30;;;;;;4900218;29;20664;-73
2021/01/28 15:17:42;;;;;;;10.70;5.40;;;3.40;97.30;;;;;;4898869;29;20209;-72
2021/01/28 15:20:09;;;;;;;13.27;6.80;;;3.30;97.30;;;;;;4900787;29;20416;-72
2021/01/28 15:22:35;;;;;;;11.70;6.53;;;3.30;97.30;;;;;;4899016;29;20678;-72
2021/01/28 15:25:01;;;;;;;22.53;8.30;;;3.20;97.30;;;;;;4898697;29;20414;-72
2021/01/28 15:27:27;;;;;;;14.23;8.00;;;3.20;97.30;;;;;;4900628;29;20213;-72
2021/01/28 15:29:52;;;;;;;15.50;7.47;;;3.20;97.30;;;;;;4898558;29;20181;-72
2021/01/28 15:32:18;;;;;;;14.40;7.27;;;3.20;97.30;;;;;;4900074;29;20201;-73
2021/01/28 15:34:44;;;;;;;11.70;7.13;;;3.10;97.30;;;;;;4899184;29;20684;-72
2021/01/28 15:37:10;;;;;;;12.10;6.40;;;3.10;97.30;;;;;;4898603;29;20470;-72
2021/01/28 15:39:36;;;;;;;13.20;6.83;;;3.00;97.30;;;;;;4898511;29;20212;-72
2021/01/28 15:42:03;;;;;;;16.37;7.20;;;3.00;97.30;;;;;;4899117;29;20635;-72
2021/01/28 15:44:28;;;;;;;12.07;6.90;;;3.00;97.30;;;;;;4898618;29;20417;-72
2021/01/28 15:46:54;;;;;;;13.67;7.47;;;2.90;97.30;;;;;;4898626;29;21022;-72
2021/01/28 15:49:19;;;;;;;12.33;7.00;;;2.90;97.30;;;;;;4899048;29;20597;-72
2021/01/28 15:51:48;;;;;;;13.43;7.10;;;2.80;97.30;;;;;;4898004;29;20751;-73
2021/01/28 15:54:14;;;;;;;13.43;7.50;;;2.70;97.30;;;;;;4898291;29;20214;-72
2021/01/28 15:56:39;;;;;;;13.93;6.70;;;2.70;97.30;;;;;;4898604;29;20554;-72
2021/01/28 15:59:05;;;;;;;12.00;6.87;;;2.70;97.30;;;;;;4898147;29;20173;-73
2021/01/28 16:01:31;;;;;;;12.53;6.43;;;2.70;97.30;;;;;;4897542;29;20209;-72
2021/01/28 16:03:56;;;;;;;14.17;6.73;;;2.70;97.30;;;;;;4898907;29;20177;-73
2021/01/28 16:06:23;;;;;;;14.53;7.40;;;2.60;97.30;;;;;;4898036;29;20196;-72
2021/01/28 16:08:49;;;;;;;13.40;7.10;;;2.60;97.30;;;;;;4898241;29;20178;-72
2021/01/28 16:11:15;;;;;;;36.40;22.47;;;2.60;97.30;;;;;;4898371;29;20442;-72
2021/01/28 16:13:41;;;;;;;27.10;15.23;;;2.60;97.30;;;;;;4899091;29;20230;-72
2021/01/28 16:16:07;;;;;;;16.50;7.77;;;2.50;97.30;;;;;;4899257;29;20460;-73
2021/01/28 16:18:33;;;;;;;14.53;7.20;;;2.50;97.30;;;;;;4898581;29;20551;-71
2021/01/28 16:20:59;;;;;;;14.50;7.53;;;2.50;97.30;;;;;;4897616;29;20470;-72
2021/01/28 16:23:24;;;;;;;12.93;6.93;;;2.40;97.30;;;;;;4897510;29;20213;-73
2021/01/28 16:25:50;;;;;;;12.40;5.80;;;2.50;97.30;;;;;;4898392;29;20525;-72
2021/01/28 16:28:16;;;;;;;15.10;7.50;;;2.40;97.30;;;;;;4897981;29;20233;-72
2021/01/28 16:30:41;;;;;;;17.90;8.03;;;2.40;97.30;;;;;;4899764;29;20200;-70
2021/01/28 16:33:09;;;;;;;12.27;6.63;;;2.40;97.30;;;;;;4902612;29;20197;-72
2021/01/28 16:35:35;;;;;;;13.77;6.47;;;2.40;97.30;;;;;;4899792;29;20184;-72
2021/01/28 16:38:01;;;;;;;9.97;6.20;;;2.40;97.30;;;;;;4898144;29;20476;-72
2021/01/28 16:40:27;;;;;;;13.70;6.43;;;2.40;97.30;;;;;;4897852;29;20417;-73
2021/01/28 16:42:53;;;;;;;17.77;8.03;;;2.40;97.30;;;;;;4897599;29;20940;-72
2021/01/28 16:45:23;;;;;;;14.50;7.30;;;2.40;97.30;;;;;;4898782;29;20648;-72
2021/01/28 16:47:49;;;;;;;16.13;7.43;;;2.40;97.30;;;;;;4899979;29;20774;-72
2021/01/28 16:50:16;;;;;;;16.90;8.23;;;2.40;97.30;;;;;;4896948;29;20418;-72
2021/01/28 16:52:42;;;;;;;20.33;8.33;;;2.50;97.30;;;;;;4898897;29;20928;-73
2021/01/28 16:55:08;;;;;;;16.83;7.83;;;2.50;97.30;;;;;;4897817;29;20465;-72
2021/01/28 16:57:34;;;;;;;19.07;8.80;;;2.50;97.30;;;;;;4896983;29;20209;-72
2021/01/28 17:00:00;;;;;;;19.07;9.17;;;2.60;97.30;;;;;;4898054;29;20829;-72
2021/01/28 17:02:25;;;;;;;15.87;7.60;;;2.60;97.30;;;;;;4898653;29;20205;-72
2021/01/28 17:04:51;;;;;;;17.70;8.27;;;2.60;97.30;;;;;;4897354;29;20183;-72
2021/01/28 17:07:17;;;;;;;18.90;8.83;;;2.60;97.30;;;;;;4896971;29;20214;-72
2021/01/28 17:09:43;;;;;;;13.90;7.97;;;2.70;97.30;;;;;;4897158;29;20248;-72
2021/01/28 17:12:09;;;;;;;15.13;8.63;;;2.70;97.30;;;;;;4895763;29;20260;-72
2021/01/28 17:14:34;;;;;;;15.70;8.10;;;2.70;97.30;;;;;;4897253;29;20190;-72
2021/01/28 17:17:02;;;;;;;17.83;8.37;;;2.80;97.30;;;;;;4898567;29;20469;-72
2021/01/28 17:19:27;;;;;;;14.93;7.57;;;2.70;97.30;;;;;;4896975;29;20565;-71
2021/01/28 17:21:53;;;;;;;14.37;7.70;;;2.70;97.30;;;;;;4896361;29;20542;-72
2021/01/28 17:24:19;;;;;;;13.43;7.37;;;2.70;97.30;;;;;;4898104;29;20182;-72
2021/01/28 17:26:49;;;;;;;18.10;7.70;;;2.70;97.30;;;;;;4896754;29;20582;-72
2021/01/28 17:29:15;;;;;;;15.13;7.50;;;2.80;97.30;;;;;;4897774;29;20339;-71
2021/01/28 17:31:41;;;;;;;16.60;7.97;;;2.80;97.30;;;;;;4896426;29;20483;-72
2021/01/28 17:34:16;;;;;;;18.70;9.40;;;2.80;97.30;;;;;;5069763;27;20524;-71
2021/01/28 17:36:42;;;;;;;18.80;9.00;;;2.80;97.30;;;;;;5068795;28;20422;-72
2021/01/28 17:39:08;;;;;;;18.63;9.90;;;2.80;97.30;;;;;;5069285;28;20409;-71
2021/01/28 17:41:34;;;;;;;16.00;9.70;;;2.80;97.30;;;;;;5069684;28;20749;-71
2021/01/28 17:44:00;;;;;;;18.17;9.17;;;2.90;97.30;;;;;;5069625;28;20410;-71
2021/01/28 17:46:27;;;;;;;17.70;9.40;;;2.90;97.30;;;;;;5069282;28;20597;-72
2021/01/28 17:48:52;;;;;;;18.90;10.20;;;2.90;97.30;;;;;;5069572;28;20939;-73
2021/01/28 17:51:18;;;;;;;19.20;9.27;;;2.90;97.30;;;;;;5069934;28;20421;-71
2021/01/28 17:53:44;;;;;;;21.80;9.90;;;2.90;97.30;;;;;;5069078;28;20198;-72
2021/01/28 17:56:10;;;;;;;22.33;12.00;;;3.00;97.30;;;;;;5070770;28;20225;-72
2021/01/28 17:58:35;;;;;;;20.67;10.37;;;3.00;97.30;;;;;;5068858;28;20267;-72
2021/01/28 18:01:01;;;;;;;22.30;10.50;;;3.00;97.30;;;;;;5069478;28;20207;-72
2021/01/28 18:03:28;;;;;;;22.43;9.90;;;3.00;97.30;;;;;;5069522;28;20499;-73
2021/01/28 18:05:54;;;;;;;19.87;10.07;;;3.00;97.30;;;;;;5069986;28;20178;-72
2021/01/28 18:08:20;;;;;;;26.23;11.97;;;3.00;97.30;;;;;;5068540;28;20560;-72
2021/01/28 18:10:47;;;;;;;20.70;10.47;;;3.00;97.30;;;;;;5068687;28;20445;-73
2021/01/28 18:13:14;;;;;;;25.37;12.80;;;3.00;97.30;;;;;;5068710;28;20445;-72
2021/01/28 18:15:40;;;;;;;25.80;11.73;;;2.90;97.30;;;;;;5069904;28;20772;-72
2021/01/28 18:18:08;;;;;;;26.33;11.80;;;2.90;97.30;;;;;;5069885;28;20406;-72
2021/01/28 18:20:34;;;;;;;24.30;11.30;;;2.80;97.30;;;;;;5068257;28;20199;-72
2021/01/28 18:23:00;;;;;;;25.10;11.70;;;2.80;97.30;;;;;;5068371;28;20418;-72
2021/01/28 18:25:26;;;;;;;26.67;11.67;;;2.80;97.30;;;;;;5069925;28;20626;-72
2021/01/28 18:27:52;;;;;;;23.90;11.03;;;2.70;97.30;;;;;;5068960;28;20270;-72
2021/01/28 18:30:18;;;;;;;24.87;11.17;;;2.70;97.30;;;;;;5069260;28;20176;-71
2021/01/28 18:32:44;;;;;;;23.60;11.50;;;2.60;97.30;;;;;;5069151;28;20510;-72
2021/01/28 18:35:11;;;;;;;31.00;12.77;;;2.60;97.30;;;;;;5069804;28;20429;-72
2021/01/28 18:37:37;;;;;;;28.50;10.60;;;2.50;97.30;;;;;;5068517;28;20172;-71
2021/01/28 18:40:21;;;;;;;25.93;11.30;;;2.40;97.30;;;;;;5066292;28;20425;-72
2021/01/28 18:42:47;;;;;;;24.80;9.37;;;2.30;97.30;;;;;;5067921;28;20219;-72
2021/01/28 18:45:15;;;;;;;27.93;9.57;;;2.20;97.30;;;;;;5056527;28;20448;-72
2021/01/28 18:47:41;;;;;;;30.53;10.73;;;2.20;97.30;;;;;;5055965;28;20164;-72
2021/01/28 18:50:08;;;;;;;25.80;10.90;;;2.20;97.30;;;;;;5056292;28;20410;-71
2021/01/28 18:52:37;;;;;;;35.30;13.47;;;2.10;97.30;;;;;;5054136;28;20466;-74
2021/01/28 18:55:08;;;;;;;33.57;11.70;;;2.10;97.30;;;;;;5056832;28;20418;-80
2021/01/28 18:57:35;;;;;;;29.60;10.80;;;2.00;97.30;;;;;;5059608;28;20407;-72
2021/01/28 19:00:01;;;;;;;30.03;11.93;;;2.00;97.30;;;;;;5055672;28;20402;-73